aviador You're here:

LFBT Decoded Metar

TARBES in FRANCE
Report Time2018-06-17 23:30:00
UTC Time2018-06-17 23:50:50
Flight Rules mvfr MVFR
Wind280° at 06 kt
W.Decomp.*RWY 20: 1.0 kt HW 5.9 kt RCW
W.Rank280° ranks 6
Current wind is below 280° avg. (7.9)
Visibility9999 m
Phenomena:Mist
Clouds:Overcast 026 Hf
Expected CloudBase > 800 ft AGL from Temp-Dew spread
Ceiling2,600 ft
Temp14°C (ISA +1)
Dew Point12°C (88% RH)
AAT12.5°C
QNH1026 hPa
Density Alt1,109 ft
Elevation1,191 ft
Report Wrong Elevation
Raw Report
METAR LFBT 172330Z AUTO 28006KT 9999 OVC026 14/12 Q1026 TEMPO 4000
BR BKN007=

Extra information for LFBT:More info

Metar Taf Metar & Taf Last 4 Metars F.Rules Stats Wind Profile Meteogram Temp Stats Airport Information Weather charts Add Link Nearby VenuesMetar ALERT Operation Metar Decoded Social comments